Time;durP1;ratioP1;P1;durP2;ratioP2;P2;SDS_P1;SDS_P2;PMS_P1;PMS_P2;Temp;Humidity;BMP_temperature;BMP_pressure;BME280_temperature;BME280_humidity;BME280_pressure;Samples;Min_cycle;Max_cycle;Signal;HPM_P1;HPM_P2
2021/09/30 00:00:01;;;;;;;3.92;1.23;;;9.50;76.30;;;;;;5011389;28;20076;-80
2021/09/30 00:02:27;;;;;;;9.15;1.75;;;9.50;76.30;;;;;;5011278;28;20080;-80
2021/09/30 00:04:54;;;;;;;8.05;1.65;;;9.50;76.30;;;;;;5011623;28;20054;-81
2021/09/30 00:07:21;;;;;;;6.68;1.48;;;9.40;76.30;;;;;;5011026;28;20112;-80
2021/09/30 00:09:48;;;;;;;8.20;1.20;;;9.40;76.30;;;;;;5011168;28;20100;-80
2021/09/30 00:12:19;;;;;;;5.70;1.40;;;9.40;76.30;;;;;;5011032;28;20573;-80
2021/09/30 00:36:16;;;;;;;10.65;1.65;;;9.40;76.40;;;;;;5010613;28;20177;-80
2021/09/30 00:49:46;;;;;;;9.02;1.83;;;9.30;76.60;;;;;;5010102;28;20085;-80
2021/09/30 00:53:23;;;;;;;6.38;1.80;;;9.30;76.60;;;;;;5010641;28;20046;-81
2021/09/30 00:55:22;;;;;;;5.10;1.98;;;9.20;76.60;;;;;;5002043;28;20080;-80
2021/09/30 02:19:43;;;;;;;7.22;1.60;;;8.70;78.00;;;;;;4918770;29;20048;-80
2021/09/30 03:00:57;;;;;;;8.27;1.70;;;8.60;78.20;;;;;;4950497;28;20631;-81
2021/09/30 03:03:25;;;;;;;7.28;1.67;;;8.60;78.20;;;;;;4950555;29;20047;-81
2021/09/30 03:05:54;;;;;;;5.32;1.80;;;8.50;78.20;;;;;;4950612;29;20039;-80
2021/09/30 03:08:26;;;;;;;8.20;1.85;;;8.60;78.30;;;;;;4950560;29;20051;-80
2021/09/30 03:10:55;;;;;;;8.02;1.92;;;8.60;78.30;;;;;;4947078;29;20106;-80
2021/09/30 03:13:23;;;;;;;6.80;1.50;;;8.50;78.30;;;;;;4950353;29;20445;-80
2021/09/30 03:15:58;;;;;;;5.35;1.52;;;8.60;78.30;;;;;;5003517;28;20049;-80
2021/09/30 03:18:55;;;;;;;9.18;1.77;;;8.50;78.30;;;;;;5011103;28;20137;-81
2021/09/30 03:24:11;;;;;;;4.60;1.38;;;8.50;78.40;;;;;;5010723;28;20558;-81
2021/09/30 03:26:39;;;;;;;6.63;1.70;;;8.50;78.40;;;;;;5011115;28;20407;-80
2021/09/30 03:29:07;;;;;;;7.03;1.58;;;8.50;78.40;;;;;;5011269;28;20507;-81
2021/09/30 03:31:35;;;;;;;7.95;1.70;;;8.50;78.40;;;;;;5009423;28;20104;-80
2021/09/30 03:34:03;;;;;;;8.48;1.60;;;8.50;78.40;;;;;;5010937;28;20577;-80
2021/09/30 03:36:29;;;;;;;5.80;1.65;;;8.60;78.40;;;;;;4972332;28;1113926;-81
2021/09/30 03:38:57;;;;;;;8.02;1.40;;;8.60;78.40;;;;;;5011535;28;20104;-81
2021/09/30 03:41:23;;;;;;;7.60;1.73;;;8.50;78.30;;;;;;5012056;28;20049;-81
2021/09/30 03:43:50;;;;;;;6.28;1.50;;;8.60;78.30;;;;;;5012418;28;20580;-80
2021/09/30 03:46:17;;;;;;;8.15;1.88;;;8.50;78.30;;;;;;5011721;28;20050;-80
2021/09/30 03:48:52;;;;;;;8.20;1.90;;;8.50;78.30;;;;;;5011474;28;20050;-81
2021/09/30 03:51:32;;;;;;;7.15;1.70;;;8.50;78.40;;;;;;5011516;28;20053;-81
2021/09/30 03:54:25;;;;;;;7.47;1.58;;;8.50;78.40;;;;;;5011269;28;20096;-80
2021/09/30 03:59:29;;;;;;;7.15;1.77;;;8.40;78.50;;;;;;4996674;28;20111;-81
2021/09/30 04:02:00;;;;;;;8.20;1.40;;;8.40;78.50;;;;;;5011325;28;20049;-81
2021/09/30 04:04:33;;;;;;;8.65;1.70;;;8.40;78.50;;;;;;5011147;28;20053;-80
2021/09/30 04:07:05;;;;;;;9.50;1.55;;;8.40;78.50;;;;;;5011296;28;20058;-80
2021/09/30 04:09:33;;;;;;;6.90;1.48;;;8.40;78.50;;;;;;5011128;28;20057;-80
2021/09/30 04:12:02;;;;;;;6.43;1.67;;;8.40;78.50;;;;;;5011177;28;20180;-80
2021/09/30 04:14:29;;;;;;;9.20;1.50;;;8.40;78.50;;;;;;5011299;28;20042;-80
2021/09/30 04:16:56;;;;;;;7.93;1.85;;;8.40;78.50;;;;;;5011374;28;20472;-80
2021/09/30 04:19:23;;;;;;;6.03;1.40;;;8.40;78.60;;;;;;5011453;28;20573;-80
2021/09/30 04:21:52;;;;;;;7.13;1.70;;;8.40;78.60;;;;;;5010879;28;20049;-80
2021/09/30 04:24:20;;;;;;;6.90;1.70;;;8.30;78.70;;;;;;5010911;28;20632;-81
2021/09/30 04:26:51;;;;;;;7.35;1.60;;;8.30;78.70;;;;;;5011073;28;20042;-80
2021/09/30 04:29:19;;;;;;;7.25;1.75;;;8.30;78.80;;;;;;5011000;28;20045;-80
2021/09/30 04:31:46;;;;;;;7.43;1.65;;;8.30;78.90;;;;;;5011585;28;20495;-80
2021/09/30 04:34:13;;;;;;;6.80;1.60;;;8.30;78.90;;;;;;5010874;28;20495;-80
2021/09/30 04:36:41;;;;;;;7.72;1.60;;;8.20;78.90;;;;;;4992791;28;20469;-81
2021/09/30 04:39:08;;;;;;;7.63;1.75;;;8.20;79.00;;;;;;5010725;28;20084;-80
2021/09/30 04:41:35;;;;;;;8.25;1.65;;;8.30;79.00;;;;;;5010854;28;20053;-80
2021/09/30 04:44:03;;;;;;;11.85;2.22;;;8.30;78.90;;;;;;5010812;28;20116;-80
2021/09/30 04:46:30;;;;;;;5.13;1.73;;;8.30;78.90;;;;;;5011200;28;20420;-80
2021/09/30 04:48:57;;;;;;;9.35;1.88;;;8.30;79.00;;;;;;5010718;28;20064;-80
2021/09/30 04:51:24;;;;;;;5.88;1.48;;;8.30;78.90;;;;;;5010270;28;20104;-81
2021/09/30 04:53:51;;;;;;;6.78;2.17;;;8.20;78.90;;;;;;5010567;28;20050;-80
2021/09/30 04:56:18;;;;;;;7.10;1.58;;;8.30;78.90;;;;;;5010606;28;20104;-80
2021/09/30 04:58:45;;;;;;;4.72;1.30;;;8.30;78.90;;;;;;5011060;28;20404;-80
2021/09/30 05:01:12;;;;;;;8.70;1.65;;;8.30;78.80;;;;;;5010496;28;20050;-80
2021/09/30 05:03:39;;;;;;;11.18;1.92;;;8.30;78.80;;;;;;5010450;28;20400;-80
2021/09/30 05:06:10;;;;;;;6.32;1.33;;;8.30;78.70;;;;;;5010038;28;20500;-80
2021/09/30 05:08:39;;;;;;;7.25;1.80;;;8.30;78.70;;;;;;5010405;28;20104;-80
2021/09/30 05:11:06;;;;;;;14.93;1.65;;;8.30;78.60;;;;;;5010614;28;20495;-80
2021/09/30 05:13:40;;;;;;;9.98;1.80;;;8.30;78.60;;;;;;5011896;28;20404;-80
2021/09/30 05:16:10;;;;;;;10.13;1.70;;;8.30;78.60;;;;;;5014366;28;20068;-80
2021/09/30 05:18:46;;;;;;;9.55;2.15;;;8.30;78.60;;;;;;5014190;28;20399;-80
2021/09/30 05:21:14;;;;;;;7.72;2.05;;;8.30;78.60;;;;;;5013979;28;20046;-80
2021/09/30 05:23:41;;;;;;;7.65;1.80;;;8.20;78.70;;;;;;5014459;28;20050;-80
2021/09/30 05:26:09;;;;;;;5.20;1.35;;;8.20;78.70;;;;;;5014310;28;20099;-80
2021/09/30 05:28:36;;;;;;;7.55;1.77;;;8.20;78.80;;;;;;5014876;28;20108;-80
2021/09/30 05:31:03;;;;;;;7.45;1.60;;;8.20;78.90;;;;;;5014072;28;20129;-80
2021/09/30 05:33:30;;;;;;;7.15;1.73;;;8.20;78.90;;;;;;5014071;28;20062;-80
2021/09/30 05:35:57;;;;;;;8.23;1.67;;;8.20;78.90;;;;;;5013561;28;20037;-80
2021/09/30 05:38:24;;;;;;;7.57;1.73;;;8.20;78.90;;;;;;5014105;28;20042;-81
2021/09/30 05:40:53;;;;;;;8.32;1.80;;;8.10;78.90;;;;;;5014760;28;20054;-80
2021/09/30 05:43:28;;;;;;;9.75;1.98;;;8.10;78.90;;;;;;5014095;28;20100;-80
2021/09/30 05:45:58;;;;;;;;;;;8.10;79.00;;;;;;5014379;28;20092;-80
2021/09/30 05:48:26;;;;;;;9.30;1.92;;;8.10;79.00;;;;;;5013778;28;20370;-80
2021/09/30 05:50:53;;;;;;;8.70;1.75;;;8.10;79.10;;;;;;5013618;28;20457;-80
2021/09/30 05:53:20;;;;;;;7.38;1.90;;;8.10;79.20;;;;;;5013794;28;20061;-80
2021/09/30 05:55:48;;;;;;;6.75;1.80;;;8.10;79.30;;;;;;5014374;28;20104;-80
2021/09/30 05:58:16;;;;;;;8.40;2.28;;;8.10;79.30;;;;;;5013619;28;20053;-80
2021/09/30 06:00:57;;;;;;;8.38;2.15;;;8.10;79.50;;;;;;5013677;28;20104;-80
2021/09/30 06:14:34;;;;;;;8.77;2.53;;;8.20;80.10;;;;;;4938677;29;20468;-80
2021/09/30 06:17:01;;;;;;;8.43;2.05;;;8.20;80.20;;;;;;4952802;29;20047;-80
2021/09/30 06:19:30;;;;;;;13.35;2.40;;;8.30;80.30;;;;;;4952461;29;20057;-80
2021/09/30 06:21:58;;;;;;;9.43;2.13;;;8.40;80.40;;;;;;4952498;29;20567;-80
2021/09/30 06:24:24;;;;;;;10.00;2.25;;;8.30;80.50;;;;;;4951996;28;20054;-80
2021/09/30 06:26:51;;;;;;;10.40;2.75;;;8.40;80.50;;;;;;4952400;28;20062;-80
2021/09/30 06:29:18;;;;;;;11.73;2.65;;;8.40;80.50;;;;;;4952444;29;20047;-80
2021/09/30 06:31:45;;;;;;;9.25;2.15;;;8.40;80.50;;;;;;4952919;29;20051;-80
2021/09/30 06:34:12;;;;;;;7.45;2.00;;;8.50;80.60;;;;;;4951703;29;20135;-80
2021/09/30 06:36:39;;;;;;;15.77;2.13;;;8.60;80.60;;;;;;4951998;29;20508;-79
2021/09/30 06:39:06;;;;;;;8.13;2.13;;;8.60;80.60;;;;;;4957740;28;20047;-79
2021/09/30 06:41:33;;;;;;;16.35;3.08;;;8.60;80.60;;;;;;5012957;28;20041;-79
2021/09/30 06:44:17;;;;;;;9.02;2.28;;;8.70;80.60;;;;;;5013087;28;20458;-79
2021/09/30 06:46:44;;;;;;;11.32;2.65;;;8.70;80.70;;;;;;5013094;28;20055;-79
2021/09/30 06:49:11;;;;;;;9.90;1.80;;;8.80;80.70;;;;;;5011960;28;20912;-79
2021/09/30 06:51:38;;;;;;;11.15;2.88;;;8.80;80.70;;;;;;5016579;28;20054;-80
2021/09/30 06:54:05;;;;;;;9.82;2.83;;;8.80;80.70;;;;;;5016073;28;20400;-79
2021/09/30 06:56:32;;;;;;;7.18;2.50;;;8.90;80.70;;;;;;5009032;28;20503;-79
2021/09/30 06:59:06;;;;;;;10.95;2.58;;;8.90;80.70;;;;;;4995419;28;20575;-78
2021/09/30 07:01:35;;;;;;;18.02;2.90;;;8.90;80.70;;;;;;5008328;28;20093;-79
2021/09/30 07:04:06;;;;;;;14.50;2.88;;;8.90;80.70;;;;;;4999615;28;20053;-80
2021/09/30 07:06:34;;;;;;;11.63;2.97;;;9.00;80.70;;;;;;4997347;28;20057;-78
2021/09/30 07:09:02;;;;;;;13.15;3.85;;;9.00;80.70;;;;;;4997422;28;20046;-79
2021/09/30 07:11:29;;;;;;;12.85;2.67;;;9.00;80.80;;;;;;4993964;28;20101;-79
2021/09/30 07:13:57;;;;;;;7.03;2.40;;;9.10;80.70;;;;;;4995686;28;20081;-81
2021/09/30 07:16:23;;;;;;;10.32;2.78;;;9.10;80.70;;;;;;4997816;28;20106;-79
2021/09/30 07:18:51;;;;;;;10.05;2.17;;;9.20;80.70;;;;;;4997117;28;20050;-79
2021/09/30 07:21:18;;;;;;;13.02;2.10;;;9.20;80.60;;;;;;4997270;28;20101;-80
2021/09/30 07:23:45;;;;;;;7.35;2.00;;;9.20;80.60;;;;;;4996021;28;20049;-79
2021/09/30 07:26:13;;;;;;;10.73;2.40;;;9.30;80.60;;;;;;4994110;28;20050;-80
2021/09/30 07:28:40;;;;;;;9.45;2.35;;;9.30;80.60;;;;;;4997242;28;20074;-80
2021/09/30 07:31:08;;;;;;;12.02;2.13;;;9.40;80.70;;;;;;5004162;28;20052;-80
2021/09/30 07:33:35;;;;;;;11.48;2.45;;;9.40;80.60;;;;;;5003588;28;20057;-79
2021/09/30 07:36:03;;;;;;;6.85;1.98;;;9.40;80.60;;;;;;4996786;28;20038;-79
2021/09/30 07:38:30;;;;;;;10.93;2.42;;;9.50;80.60;;;;;;4992968;28;20105;-80
2021/09/30 07:40:56;;;;;;;12.40;2.60;;;9.50;80.50;;;;;;4993359;28;20054;-80
2021/09/30 07:43:23;;;;;;;7.97;2.17;;;9.60;80.50;;;;;;5005240;28;20050;-81
2021/09/30 07:45:50;;;;;;;10.65;1.88;;;9.60;80.50;;;;;;5006135;28;20050;-81
2021/09/30 07:48:17;;;;;;;7.85;1.83;;;9.70;80.50;;;;;;5006486;28;20050;-81
2021/09/30 07:50:45;;;;;;;9.43;1.80;;;9.70;80.40;;;;;;5008879;28;20137;-82
2021/09/30 07:53:14;;;;;;;9.65;2.42;;;9.80;80.40;;;;;;4994704;28;20046;-82
2021/09/30 07:55:43;;;;;;;9.25;2.03;;;9.90;80.30;;;;;;4998078;28;20042;-81
2021/09/30 07:58:10;;;;;;;10.55;2.40;;;9.90;80.30;;;;;;4997414;28;20105;-81
2021/09/30 08:00:39;;;;;;;7.88;2.05;;;9.90;80.20;;;;;;4996883;28;20117;-81
2021/09/30 08:03:07;;;;;;;7.55;2.00;;;9.90;80.20;;;;;;4997450;28;20081;-81
2021/09/30 08:05:36;;;;;;;11.82;2.65;;;10.00;80.20;;;;;;4994755;28;20046;-81
2021/09/30 08:08:04;;;;;;;8.27;2.10;;;10.00;80.30;;;;;;4995654;28;20076;-81
2021/09/30 08:10:32;;;;;;;12.52;2.60;;;10.10;80.20;;;;;;4997767;28;20050;-81
2021/09/30 08:12:59;;;;;;;9.90;2.35;;;10.20;80.20;;;;;;4997303;28;20050;-81
2021/09/30 08:15:27;;;;;;;11.52;2.60;;;10.20;80.20;;;;;;4997446;28;20109;-81
2021/09/30 08:17:54;;;;;;;6.07;1.90;;;10.30;80.20;;;;;;4997331;28;20088;-81
2021/09/30 08:20:22;;;;;;;8.10;2.20;;;10.30;80.20;;;;;;4992983;28;20108;-81
2021/09/30 08:22:49;;;;;;;4.63;1.90;;;10.40;80.20;;;;;;4997358;28;20046;-80
2021/09/30 08:25:16;;;;;;;10.48;2.40;;;10.40;80.20;;;;;;4984094;28;20046;-81
2021/09/30 08:27:43;;;;;;;11.50;2.50;;;10.50;80.20;;;;;;5001841;28;20050;-80
2021/09/30 08:30:11;;;;;;;9.27;2.35;;;10.50;80.20;;;;;;4996955;28;20097;-80
2021/09/30 08:32:38;;;;;;;7.15;1.80;;;10.50;80.10;;;;;;4994721;28;20109;-81
2021/09/30 08:35:06;;;;;;;6.85;2.00;;;10.60;80.10;;;;;;4994562;28;20569;-81
2021/09/30 08:37:33;;;;;;;6.43;2.08;;;10.60;80.00;;;;;;4996939;28;20058;-80
2021/09/30 08:40:01;;;;;;;9.88;2.58;;;10.70;80.00;;;;;;4997130;28;20068;-81
2021/09/30 08:42:28;;;;;;;8.95;2.17;;;10.70;79.90;;;;;;4996690;28;20511;-80
2021/09/30 08:44:57;;;;;;;9.02;2.03;;;10.70;79.90;;;;;;4996297;28;20506;-81
2021/09/30 08:47:24;;;;;;;10.80;2.30;;;10.70;79.80;;;;;;4993074;28;20502;-80
2021/09/30 08:49:51;;;;;;;9.35;2.08;;;10.70;79.80;;;;;;5007952;28;20046;-81
2021/09/30 08:52:17;;;;;;;9.23;2.60;;;10.80;79.80;;;;;;4996673;28;20769;-81
2021/09/30 08:54:47;;;;;;;10.98;2.63;;;10.80;79.70;;;;;;4996848;28;20061;-81
2021/09/30 08:57:14;;;;;;;11.10;2.45;;;10.80;79.70;;;;;;4995934;28;20046;-81
2021/09/30 08:59:41;;;;;;;9.75;2.28;;;10.90;79.80;;;;;;4995049;28;20507;-81
2021/09/30 09:02:14;;;;;;;10.48;2.53;;;10.90;79.80;;;;;;4994266;28;20046;-81
2021/09/30 09:04:54;;;;;;;16.15;3.13;;;10.90;79.80;;;;;;4996405;28;20050;-81
2021/09/30 09:07:23;;;;;;;12.95;2.15;;;10.90;79.70;;;;;;5005946;28;20395;-81
2021/09/30 09:09:51;;;;;;;12.85;2.15;;;10.90;79.70;;;;;;5000515;28;20050;-80
2021/09/30 09:12:19;;;;;;;10.07;2.13;;;10.90;79.70;;;;;;4995914;28;20092;-81
2021/09/30 09:14:46;;;;;;;11.07;3.05;;;10.90;79.60;;;;;;4995155;28;20129;-81
2021/09/30 09:17:16;;;;;;;10.55;2.75;;;11.00;79.70;;;;;;4993583;28;20054;-81
2021/09/30 09:19:46;;;;;;;9.40;2.63;;;11.10;79.70;;;;;;4996111;28;20050;-81
2021/09/30 09:22:26;;;;;;;8.35;2.60;;;11.20;79.80;;;;;;4996589;28;20042;-81
2021/09/30 09:25:08;;;;;;;9.15;2.40;;;11.20;79.80;;;;;;4997438;28;20058;-81
2021/09/30 09:27:44;;;;;;;8.32;1.88;;;11.30;79.90;;;;;;5004966;28;20050;-81
2021/09/30 09:30:28;;;;;;;9.43;2.55;;;11.40;79.80;;;;;;5005957;28;20041;-81
2021/09/30 09:33:15;;;;;;;8.85;1.90;;;11.60;80.00;;;;;;4995886;28;20563;-81
2021/09/30 09:35:45;;;;;;;8.98;2.40;;;11.70;79.80;;;;;;4994843;28;20050;-80
2021/09/30 09:38:12;;;;;;;8.55;2.00;;;11.90;79.60;;;;;;4993544;28;20050;-80
2021/09/30 09:40:39;;;;;;;9.82;1.95;;;12.00;79.20;;;;;;4996015;28;20112;-81
2021/09/30 09:43:29;;;;;;;7.50;1.98;;;12.20;78.90;;;;;;4996496;28;20368;-80
2021/09/30 09:45:57;;;;;;;10.43;2.05;;;12.40;78.50;;;;;;5001106;28;20054;-80
2021/09/30 09:48:24;;;;;;;13.43;3.22;;;12.50;78.00;;;;;;5003273;28;20508;-80
2021/09/30 09:50:53;;;;;;;9.45;2.10;;;12.60;77.40;;;;;;4996044;28;20046;-81
2021/09/30 09:53:28;;;;;;;12.23;2.13;;;12.80;77.10;;;;;;4992188;28;20097;-81
2021/09/30 09:56:18;;;;;;;14.35;1.77;;;12.90;76.70;;;;;;5006794;28;20046;-81
2021/09/30 09:58:48;;;;;;;11.73;1.88;;;13.20;76.30;;;;;;4993757;28;20129;-80
2021/09/30 10:01:20;;;;;;;8.00;1.88;;;13.40;75.90;;;;;;5000303;28;20072;-80
2021/09/30 10:03:59;;;;;;;8.48;2.08;;;13.50;75.40;;;;;;4999748;28;20057;-80
2021/09/30 10:06:28;;;;;;;14.60;2.10;;;13.70;74.60;;;;;;5000108;28;20502;-82
2021/09/30 10:08:55;;;;;;;12.30;1.60;;;13.90;73.60;;;;;;4999777;28;20498;-80
2021/09/30 10:11:22;;;;;;;11.02;1.65;;;14.00;72.70;;;;;;4995146;28;20046;-80
2021/09/30 10:13:49;;;;;;;7.75;1.65;;;14.20;72.30;;;;;;5010662;28;20053;-80
2021/09/30 10:16:24;;;;;;;8.82;1.80;;;14.30;71.70;;;;;;5000076;28;20050;-80
2021/09/30 10:18:57;;;;;;;10.10;1.73;;;14.40;71.40;;;;;;4999278;28;20046;-84
2021/09/30 10:21:26;;;;;;;11.43;2.08;;;14.60;71.00;;;;;;4999532;28;20050;-81
2021/09/30 10:23:58;;;;;;;12.63;1.65;;;14.70;70.70;;;;;;4999343;28;20041;-80
2021/09/30 10:26:32;;;;;;;15.02;2.30;;;14.80;69.90;;;;;;5004068;28;20042;-81
2021/09/30 10:29:00;;;;;;;8.60;1.63;;;15.00;69.20;;;;;;4997940;28;20124;-80
2021/09/30 10:31:36;;;;;;;10.73;1.83;;;15.10;68.70;;;;;;4995049;28;20046;-80
2021/09/30 10:34:06;;;;;;;6.65;1.30;;;15.30;68.10;;;;;;4998994;28;20519;-80
2021/09/30 10:36:45;;;;;;;9.98;1.25;;;15.40;67.80;;;;;;4999109;28;20543;-81
2021/09/30 10:39:31;;;;;;;8.00;1.42;;;15.50;65.80;;;;;;4998633;28;20038;-80
2021/09/30 10:42:04;;;;;;;6.38;1.25;;;15.70;65.80;;;;;;4999441;28;20104;-80
2021/09/30 10:44:36;;;;;;;5.40;1.17;;;15.90;64.60;;;;;;4996168;28;20046;-80
2021/09/30 10:47:05;;;;;;;7.68;1.25;;;16.00;63.00;;;;;;4996639;28;20651;-80
2021/09/30 10:49:43;;;;;;;8.13;1.52;;;16.10;62.30;;;;;;4999064;28;20046;-80
2021/09/30 10:52:18;;;;;;;8.80;1.80;;;16.00;62.00;;;;;;4999106;28;20063;-80
2021/09/30 10:55:00;;;;;;;5.35;1.20;;;16.10;62.20;;;;;;4998240;28;20054;-80
2021/09/30 10:57:33;;;;;;;7.15;1.98;;;16.00;62.50;;;;;;4999755;28;20136;-79
2021/09/30 11:00:00;;;;;;;5.38;1.20;;;16.00;63.00;;;;;;5007271;28;20051;-79
2021/09/30 11:02:59;;;;;;;10.30;1.90;;;15.90;62.80;;;;;;5009188;28;20533;-80
2021/09/30 11:05:28;;;;;;;6.72;1.58;;;15.90;63.10;;;;;;4994615;28;20561;-79
2021/09/30 11:08:21;;;;;;;11.23;1.60;;;15.90;63.40;;;;;;4997424;28;20046;-80
2021/09/30 11:11:04;;;;;;;11.27;1.75;;;15.90;63.50;;;;;;4997559;28;20054;-80
2021/09/30 11:13:31;;;;;;;7.07;1.60;;;15.90;63.80;;;;;;5009096;28;20072;-80
2021/09/30 11:15:58;;;;;;;6.50;1.70;;;15.90;63.90;;;;;;5001597;28;20125;-80
2021/09/30 11:18:40;;;;;;;6.57;1.35;;;15.80;63.60;;;;;;4998311;28;20093;-80
2021/09/30 11:24:08;;;;;;;8.50;1.92;;;15.80;63.40;;;;;;4997905;28;20521;-80
2021/09/30 11:26:55;;;;;;;7.97;1.38;;;15.90;64.10;;;;;;5004698;28;20046;-80
2021/09/30 11:29:22;;;;;;;5.90;1.13;;;15.80;64.00;;;;;;4968473;28;20046;-79
2021/09/30 11:31:54;;;;;;;8.23;2.05;;;15.80;63.60;;;;;;5008875;28;20054;-79
2021/09/30 11:34:34;;;;;;;7.63;1.50;;;15.80;63.90;;;;;;5007400;28;20089;-79
2021/09/30 11:37:36;;;;;;;10.90;1.83;;;15.80;63.90;;;;;;5000085;28;20090;-80
2021/09/30 11:40:14;;;;;;;7.22;1.75;;;15.70;63.60;;;;;;5003519;28;20053;-80
2021/09/30 11:42:43;;;;;;;6.43;1.15;;;15.70;63.30;;;;;;5003322;28;20061;-79
2021/09/30 11:45:21;;;;;;;8.40;1.50;;;15.60;62.40;;;;;;4979349;28;20050;-80
2021/09/30 11:47:50;;;;;;;5.13;1.00;;;15.60;61.80;;;;;;4996614;28;20038;-79
2021/09/30 11:50:26;;;;;;;6.70;1.25;;;15.60;61.70;;;;;;4994424;28;20085;-80
2021/09/30 11:53:02;;;;;;;6.05;1.15;;;15.60;61.80;;;;;;5009270;28;20053;-79
2021/09/30 11:55:31;;;;;;;7.25;0.98;;;15.50;62.20;;;;;;5007598;28;20457;-80
2021/09/30 11:58:02;;;;;;;5.80;1.17;;;15.50;61.60;;;;;;5000159;28;20054;-79
2021/09/30 12:00:29;;;;;;;7.60;2.40;;;15.50;61.30;;;;;;4997488;28;20050;-79
2021/09/30 12:03:15;;;;;;;8.20;2.00;;;15.50;61.40;;;;;;4998135;28;20049;-80
2021/09/30 12:05:42;;;;;;;12.95;1.67;;;15.50;61.50;;;;;;4995493;28;20054;-80
2021/09/30 12:08:09;;;;;;;9.10;2.00;;;15.40;61.60;;;;;;4994790;28;20141;-81
2021/09/30 12:10:39;;;;;;;7.35;1.90;;;15.40;61.70;;;;;;4997605;28;20055;-79
2021/09/30 12:13:14;;;;;;;10.80;2.17;;;15.40;61.50;;;;;;4997520;28;20047;-80
2021/09/30 12:15:41;;;;;;;11.15;1.98;;;15.40;61.50;;;;;;4996921;28;20046;-80
2021/09/30 12:18:22;;;;;;;9.90;1.90;;;15.30;61.80;;;;;;4996999;28;20079;-79
2021/09/30 12:20:58;;;;;;;8.30;1.73;;;15.40;62.00;;;;;;4996489;28;20069;-80
2021/09/30 12:23:29;;;;;;;11.05;1.85;;;15.30;61.80;;;;;;4993020;28;20089;-79
2021/09/30 12:25:59;;;;;;;10.43;2.60;;;15.30;61.70;;;;;;4995026;28;20597;-83
2021/09/30 12:28:27;;;;;;;8.43;1.67;;;15.30;61.90;;;;;;4991607;28;20050;-80
2021/09/30 12:30:54;;;;;;;5.95;1.20;;;15.30;62.20;;;;;;4995990;28;20050;-80
2021/09/30 12:33:30;;;;;;;10.23;1.40;;;15.30;62.20;;;;;;4996151;28;20050;-79
2021/09/30 12:36:03;;;;;;;10.55;2.00;;;15.30;62.20;;;;;;4995431;28;20511;-80
2021/09/30 12:38:30;;;;;;;6.10;1.50;;;15.20;61.90;;;;;;4992530;28;20093;-79
2021/09/30 12:41:03;;;;;;;9.90;1.73;;;15.20;61.70;;;;;;4994624;28;20054;-79
2021/09/30 12:43:32;;;;;;;12.93;1.63;;;15.30;62.00;;;;;;5006241;28;20525;-79
2021/09/30 12:46:08;;;;;;;10.13;1.23;;;15.30;61.90;;;;;;4998331;28;20054;-79
2021/09/30 12:48:37;;;;;;;4.65;1.33;;;15.30;62.00;;;;;;4995858;28;20471;-79
2021/09/30 12:51:07;;;;;;;9.32;1.40;;;15.30;62.10;;;;;;4995517;28;20053;-80
2021/09/30 12:53:51;;;;;;;6.95;1.20;;;15.40;62.40;;;;;;4992821;28;20046;-79
2021/09/30 12:56:21;;;;;;;5.78;1.38;;;15.40;62.50;;;;;;4992123;28;20062;-79
2021/09/30 12:58:50;;;;;;;8.75;1.60;;;15.40;62.40;;;;;;4995719;28;20067;-80
2021/09/30 13:01:35;;;;;;;8.95;1.27;;;15.40;62.20;;;;;;4995584;28;20050;-79
2021/09/30 13:04:21;;;;;;;8.10;1.38;;;15.40;61.90;;;;;;4995189;28;20538;-79
2021/09/30 13:06:56;;;;;;;7.07;1.23;;;15.40;62.10;;;;;;4995602;28;20086;-79
2021/09/30 13:09:35;;;;;;;10.38;1.40;;;15.40;62.50;;;;;;4995355;28;20101;-79
2021/09/30 13:12:10;;;;;;;7.75;1.50;;;15.40;62.50;;;;;;4995641;28;20514;-80
2021/09/30 13:14:56;;;;;;;4.68;1.27;;;15.40;62.10;;;;;;4992810;28;20544;-79
2021/09/30 13:17:27;;;;;;;6.45;1.30;;;15.40;60.90;;;;;;5007211;28;20050;-79
2021/09/30 13:19:55;;;;;;;7.93;1.80;;;15.40;61.30;;;;;;5006776;28;20050;-79
2021/09/30 13:22:28;;;;;;;5.38;1.27;;;15.40;61.60;;;;;;5004602;28;20108;-79
2021/09/30 13:24:56;;;;;;;5.18;1.20;;;15.40;61.90;;;;;;4998605;28;20521;-79
2021/09/30 13:27:27;;;;;;;11.13;1.52;;;15.40;61.60;;;;;;4995637;28;20186;-79
2021/09/30 13:29:54;;;;;;;7.28;1.10;;;15.50;61.70;;;;;;4995025;28;20076;-79
2021/09/30 13:32:24;;;;;;;8.05;1.40;;;15.50;61.50;;;;;;4991296;28;20096;-79
2021/09/30 13:34:52;;;;;;;8.02;1.65;;;15.50;61.80;;;;;;4992280;28;20112;-79
2021/09/30 13:37:19;;;;;;;5.53;1.42;;;15.50;62.00;;;;;;4993655;28;20051;-79
2021/09/30 13:39:46;;;;;;;6.75;1.17;;;15.50;62.30;;;;;;4999198;28;20050;-79
2021/09/30 13:42:13;;;;;;;6.80;1.17;;;15.50;62.40;;;;;;4999120;28;20108;-79
2021/09/30 13:44:40;;;;;;;6.07;1.38;;;15.50;62.40;;;;;;4997050;28;20510;-80
2021/09/30 13:47:07;;;;;;;5.07;1.38;;;15.50;61.80;;;;;;4996647;28;20122;-79
2021/09/30 13:49:34;;;;;;;8.07;1.25;;;15.50;61.70;;;;;;4998882;28;20061;-80
2021/09/30 13:52:02;;;;;;;9.05;1.33;;;15.60;61.80;;;;;;5004928;28;20074;-79
2021/09/30 13:54:29;;;;;;;12.55;1.17;;;15.60;61.70;;;;;;5005856;28;20071;-79
2021/09/30 13:56:56;;;;;;;7.32;1.20;;;15.60;61.50;;;;;;4998851;28;20054;-80
2021/09/30 13:59:23;;;;;;;8.05;0.95;;;15.60;61.30;;;;;;4993605;28;20105;-79
2021/09/30 14:02:10;;;;;;;5.65;1.10;;;15.50;61.10;;;;;;5010272;28;20089;-79
2021/09/30 14:04:37;;;;;;;3.25;1.13;;;15.50;60.60;;;;;;4998939;28;20050;-79
2021/09/30 14:07:05;;;;;;;8.13;1.10;;;15.40;60.50;;;;;;5004301;28;20058;-79
2021/09/30 14:09:34;;;;;;;7.25;1.33;;;15.40;60.30;;;;;;5005088;28;20081;-79
2021/09/30 14:12:03;;;;;;;5.07;1.05;;;15.40;60.00;;;;;;4998598;28;20056;-79
2021/09/30 14:14:30;;;;;;;3.05;0.80;;;15.40;60.00;;;;;;4994949;28;20050;-79
2021/09/30 14:16:57;;;;;;;4.15;1.10;;;15.40;60.00;;;;;;4997007;28;20046;-79
2021/09/30 14:19:25;;;;;;;5.45;1.00;;;15.40;60.10;;;;;;4999207;28;20050;-79
2021/09/30 14:21:54;;;;;;;7.75;1.55;;;15.40;60.10;;;;;;4998582;28;20050;-79
2021/09/30 14:24:21;;;;;;;6.35;0.95;;;15.40;60.30;;;;;;4998431;28;20503;-80
2021/09/30 14:26:48;;;;;;;11.10;1.10;;;15.40;60.10;;;;;;4997391;28;20050;-80
2021/09/30 14:29:16;;;;;;;8.90;1.63;;;15.50;59.90;;;;;;4995226;28;20230;-80
2021/09/30 14:31:43;;;;;;;5.40;1.30;;;15.40;59.90;;;;;;4998131;28;20097;-79
2021/09/30 14:34:10;;;;;;;4.40;0.90;;;15.50;60.10;;;;;;4998042;28;20054;-79
2021/09/30 14:36:37;;;;;;;5.07;1.02;;;15.50;60.20;;;;;;4997916;28;20054;-80
2021/09/30 14:39:04;;;;;;;8.77;1.45;;;15.50;60.40;;;;;;4998409;28;20049;-79
2021/09/30 14:41:30;;;;;;;5.72;0.85;;;15.60;60.30;;;;;;4994650;28;20096;-80
2021/09/30 14:43:57;;;;;;;4.57;1.20;;;15.60;60.40;;;;;;4996594;28;20096;-79
2021/09/30 14:46:24;;;;;;;7.00;1.33;;;15.70;60.60;;;;;;4998244;28;20066;-79
2021/09/30 14:48:51;;;;;;;5.85;1.05;;;15.60;60.50;;;;;;4998105;28;20081;-79
2021/09/30 14:51:18;;;;;;;7.80;1.30;;;15.70;60.60;;;;;;4997881;28;20050;-80
2021/09/30 14:53:45;;;;;;;8.38;1.45;;;15.70;60.80;;;;;;4996352;28;20050;-79
2021/09/30 14:56:12;;;;;;;7.40;1.55;;;15.70;60.70;;;;;;4995004;28;20051;-79
2021/09/30 14:58:39;;;;;;;7.68;1.63;;;15.70;60.30;;;;;;4997753;28;20046;-79
2021/09/30 15:01:08;;;;;;;7.35;1.38;;;15.70;60.00;;;;;;4997443;28;20088;-79
2021/09/30 15:03:35;;;;;;;6.32;1.05;;;15.80;60.00;;;;;;4986433;28;20093;-79
2021/09/30 15:06:02;;;;;;;4.55;1.20;;;15.80;60.10;;;;;;4997621;28;20046;-79
2021/09/30 15:08:29;;;;;;;7.38;1.20;;;15.80;60.10;;;;;;4993840;28;20045;-79
2021/09/30 15:10:56;;;;;;;8.70;1.48;;;15.80;60.40;;;;;;4996385;28;20254;-79
2021/09/30 15:13:23;;;;;;;4.82;1.10;;;15.80;60.10;;;;;;5006529;28;20054;-80
2021/09/30 15:15:50;;;;;;;5.85;1.35;;;15.80;59.50;;;;;;5001132;28;20062;-79
2021/09/30 15:18:38;;;;;;;7.97;1.38;;;15.80;59.60;;;;;;4997575;28;20046;-79
2021/09/30 15:21:21;;;;;;;7.88;1.20;;;15.80;59.90;;;;;;4997422;28;20077;-79
2021/09/30 15:23:51;;;;;;;4.63;1.05;;;15.80;60.20;;;;;;4996351;28;20038;-79
2021/09/30 15:26:18;;;;;;;4.25;1.15;;;15.80;60.40;;;;;;4993876;28;20062;-79
2021/09/30 15:28:45;;;;;;;7.45;1.10;;;15.80;60.70;;;;;;4996971;28;20046;-80
2021/09/30 15:31:12;;;;;;;4.30;1.08;;;15.80;60.70;;;;;;4997201;28;20050;-79
2021/09/30 15:33:40;;;;;;;2.95;0.63;;;15.80;60.70;;;;;;4997198;28;20047;-79
2021/09/30 15:36:09;;;;;;;6.78;1.20;;;15.70;60.40;;;;;;4996811;28;20596;-79
2021/09/30 15:38:37;;;;;;;7.50;1.48;;;15.70;60.50;;;;;;4994196;28;20455;-79
2021/09/30 15:41:05;;;;;;;5.25;1.48;;;15.70;60.10;;;;;;4994769;28;20540;-79
2021/09/30 15:43:45;;;;;;;5.57;1.40;;;15.70;60.40;;;;;;4996772;28;20046;-79
2021/09/30 15:46:13;;;;;;;7.20;1.60;;;15.70;60.50;;;;;;4996817;28;20502;-79
2021/09/30 15:48:40;;;;;;;5.55;1.52;;;15.70;60.50;;;;;;4996839;28;20487;-79
2021/09/30 15:51:09;;;;;;;5.07;1.10;;;15.70;60.60;;;;;;4997031;28;20050;-80
2021/09/30 15:53:36;;;;;;;5.22;0.98;;;15.70;60.80;;;;;;4993874;28;20088;-80
2021/09/30 15:56:06;;;;;;;4.85;1.50;;;15.80;61.00;;;;;;4994587;28;20050;-80